Time;durP1;ratioP1;P1;durP2;ratioP2;P2;SDS_P1;SDS_P2;PMS_P1;PMS_P2;Temp;Humidity;BMP_temperature;BMP_pressure;BME280_temperature;BME280_humidity;BME280_pressure;Samples;Min_cycle;Max_cycle;Signal;HPM_P1;HPM_P2
2023/10/12 00:02:21;;;;;;;17.30;15.00;;;;;;;24.83;57.42;101535.28;5015515;28;20046;-59
2023/10/12 00:05:00;;;;;;;17.63;15.10;;;;;;;24.83;57.11;101543.41;5015709;28;20045;-59
2023/10/12 00:07:42;;;;;;;18.27;15.07;;;;;;;24.82;57.34;101539.88;5015418;28;20052;-59
2023/10/12 00:12:47;;;;;;;21.25;15.60;;;;;;;24.82;57.31;101536.31;5013532;28;20061;-58
2023/10/12 00:17:52;;;;;;;17.00;15.20;;;;;;;24.81;57.43;101535.47;5015314;28;20053;-58
2023/10/12 00:20:55;;;;;;;18.17;15.32;;;;;;;24.81;57.28;101535.47;5015152;28;20101;-58
2023/10/12 00:23:14;;;;;;;17.35;14.32;;;;;;;24.81;57.25;101534.63;5014754;28;20084;-57
2023/10/12 00:25:46;;;;;;;16.65;14.90;;;;;;;24.80;57.26;101528.34;5014899;28;20515;-57
2023/10/12 00:28:17;;;;;;;17.30;14.60;;;;;;;24.79;57.18;101532.03;5015371;28;20045;-58
2023/10/12 00:30:49;;;;;;;18.30;14.13;;;;;;;24.80;57.22;101527.50;5015205;28;20046;-58
2023/10/12 00:33:17;;;;;;;16.40;14.75;;;;;;;24.80;57.22;101527.50;5015090;28;20499;-58
2023/10/12 00:36:04;;;;;;;17.27;14.68;;;;;;;24.80;57.15;101522.94;5013865;28;20053;-58
2023/10/12 00:38:32;;;;;;;17.25;14.23;;;;;;;24.79;57.39;101521.19;5014192;28;20053;-58
2023/10/12 00:41:04;;;;;;;15.95;13.88;;;;;;;24.80;57.36;101519.38;5029866;28;20507;-58
2023/10/12 00:43:39;;;;;;;18.45;15.52;;;;;;;24.80;56.95;101530.22;4999530;28;20046;-58
2023/10/12 00:49:27;;;;;;;17.15;14.52;;;;;;;24.79;57.04;101523.06;5014916;28;20409;-58
2023/10/12 00:51:51;;;;;;;17.00;15.05;;;;;;;24.79;56.90;101512.22;5008779;28;20068;-58
2023/10/12 00:57:09;;;;;;;17.23;15.27;;;;;;;24.78;57.25;101514.09;5011697;28;20050;-58
2023/10/12 00:59:38;;;;;;;16.13;14.32;;;;;;;24.79;57.10;101506.81;5010481;28;20054;-59
2023/10/12 01:02:15;;;;;;;15.45;12.90;;;;;;;24.78;57.13;101503.25;5011615;28;20038;-58
2023/10/12 01:04:48;;;;;;;15.98;14.00;;;;;;;24.77;57.05;101506.97;4997483;28;20451;-58
2023/10/12 01:07:38;;;;;;;15.15;13.63;;;;;;;24.78;57.07;101502.41;5005926;28;20037;-58
2023/10/12 01:10:10;;;;;;;16.17;14.48;;;;;;;24.78;57.22;101499.69;5014080;28;20050;-58
2023/10/12 01:12:37;;;;;;;16.65;14.25;;;;;;;24.77;56.98;101501.56;5011060;28;20056;-57
2023/10/12 01:15:10;;;;;;;17.85;14.38;;;;;;;24.77;56.79;101509.69;5014454;28;20042;-58
2023/10/12 01:17:40;;;;;;;15.95;14.15;;;;;;;24.78;56.95;101502.41;5014390;28;20058;-58
2023/10/12 01:20:16;;;;;;;15.80;14.15;;;;;;;24.77;56.75;101498.84;5009117;28;20419;-58
2023/10/12 01:22:43;;;;;;;15.88;14.18;;;;;;;24.77;56.85;101493.44;5014521;28;20057;-59
2023/10/12 01:25:11;;;;;;;17.80;15.18;;;;;;;24.77;56.98;101501.56;5014084;28;20041;-58
2023/10/12 01:27:44;;;;;;;16.35;14.50;;;;;;;24.77;56.83;101501.56;5013944;28;20041;-58
2023/10/12 01:30:22;;;;;;;16.92;15.13;;;;;;;24.78;56.95;101510.53;5012955;28;20054;-58
2023/10/12 01:32:59;;;;;;;18.00;15.25;;;;;;;24.78;57.06;101502.41;5005584;28;20050;-58
2023/10/12 01:35:32;;;;;;;16.90;14.15;;;;;;;24.77;57.05;101503.41;5013821;28;20056;-58
2023/10/12 01:38:08;;;;;;;;;;;;;;;24.75;57.11;101510.81;5013142;28;20389;-58
2023/10/12 01:40:55;;;;;;;19.67;14.88;;;;;;;24.76;56.89;101507.13;5004983;28;19921;-58
2023/10/12 01:43:27;;;;;;;14.82;12.93;;;;;;;24.76;56.90;101497.16;5012617;28;20049;-58
2023/10/12 01:46:01;;;;;;;16.08;14.20;;;;;;;24.76;56.98;101496.31;5014265;28;20057;-58
2023/10/12 01:48:33;;;;;;;16.25;14.45;;;;;;;24.75;57.04;101498.13;5005337;28;20069;-58
2023/10/12 01:51:06;;;;;;;15.13;13.52;;;;;;;24.76;56.78;101501.72;5013763;28;20050;-58
2023/10/12 01:53:37;;;;;;;16.02;14.05;;;;;;;24.76;57.05;101499.88;5008171;28;20061;-59
2023/10/12 01:56:09;;;;;;;18.05;15.07;;;;;;;24.76;56.88;101499.00;5010540;28;20059;-58
2023/10/12 01:58:38;;;;;;;15.30;12.80;;;;;;;24.75;56.68;101500.84;5027832;28;20056;-59
2023/10/12 02:01:07;;;;;;;14.73;13.23;;;;;;;24.75;57.09;101505.41;5013379;28;20053;-59
2023/10/12 02:03:42;;;;;;;15.95;13.15;;;;;;;24.76;57.08;101509.84;5013584;28;20050;-59
2023/10/12 02:06:14;;;;;;;15.57;13.98;;;;;;;24.75;56.89;101500.00;5004250;28;20053;-58
2023/10/12 02:08:46;;;;;;;15.20;13.05;;;;;;;24.75;56.84;101505.41;5013767;28;20054;-59
2023/10/12 02:13:54;;;;;;;15.98;13.68;;;;;;;24.75;56.87;101510.81;5013540;28;20050;-59
2023/10/12 02:16:26;;;;;;;16.85;14.43;;;;;;;24.75;56.92;101497.28;5012329;28;20053;-58
2023/10/12 02:18:54;;;;;;;16.30;14.13;;;;;;;24.75;56.71;101500.00;5013507;28;20057;-59
2023/10/12 02:21:25;;;;;;;19.98;14.95;;;;;;;24.75;56.99;101500.00;4993117;28;20062;-58
2023/10/12 02:31:39;;;;;;;;;;;;;;;24.72;57.03;101490.34;5013853;28;20057;-58
2023/10/12 02:34:13;;;;;;;14.80;12.77;;;;;;;24.73;56.73;101502.03;5013565;28;19922;-58
2023/10/12 02:36:40;;;;;;;16.23;13.70;;;;;;;24.74;56.68;101495.59;5016031;28;20404;-58
2023/10/12 02:39:15;;;;;;;15.55;13.95;;;;;;;24.72;56.90;101495.75;5014112;28;20050;-58
2023/10/12 02:41:50;;;;;;;14.15;12.70;;;;;;;24.73;56.61;101502.03;5017319;28;20053;-58
2023/10/12 02:44:19;;;;;;;14.95;13.30;;;;;;;24.72;56.78;101495.75;5015529;28;20049;-58
2023/10/12 02:47:05;;;;;;;15.23;12.98;;;;;;;24.72;56.88;101509.28;5017093;28;20042;-58
2023/10/12 02:49:39;;;;;;;15.18;13.57;;;;;;;24.72;56.76;101506.59;5008419;28;20054;-59
2023/10/12 02:52:10;;;;;;;16.27;14.57;;;;;;;24.73;56.76;101512.84;5016787;28;20057;-58
2023/10/12 02:54:51;;;;;;;16.88;13.30;;;;;;;24.73;56.68;101519.13;5015757;28;20512;-58
2023/10/12 02:57:22;;;;;;;15.50;13.90;;;;;;;24.72;56.51;101516.56;5007545;28;20061;-58
2023/10/12 02:59:59;;;;;;;14.23;12.73;;;;;;;24.71;56.68;101528.38;5016977;28;20054;-58
2023/10/12 03:02:33;;;;;;;16.08;14.15;;;;;;;24.72;56.83;101519.28;5010280;28;20412;-59
2023/10/12 03:05:06;;;;;;;15.68;13.20;;;;;;;24.72;56.70;101516.56;5016744;28;20053;-58
2023/10/12 03:07:39;;;;;;;17.45;14.57;;;;;;;24.70;56.57;101514.00;5015140;28;20050;-58
2023/10/12 03:10:15;;;;;;;;;;;;;;;24.69;56.85;101503.31;5016876;28;20046;-58
2023/10/12 03:12:44;;;;;;;14.30;12.20;;;;;;;24.71;56.65;101506.72;5017526;28;19922;-58
2023/10/12 03:15:14;;;;;;;15.48;13.88;;;;;;;24.70;56.78;101505.03;5010486;28;20599;-58
2023/10/12 03:17:52;;;;;;;14.38;12.88;;;;;;;24.71;56.73;101504.00;5014965;28;20488;-58
2023/10/12 03:20:22;;;;;;;15.68;13.00;;;;;;;24.71;56.50;101509.44;5016598;28;20500;-58
2023/10/12 03:22:53;;;;;;;16.02;13.02;;;;;;;24.71;56.68;101509.44;5014922;28;20061;-58
2023/10/12 03:25:20;;;;;;;14.88;13.10;;;;;;;24.71;56.44;101517.53;5016403;28;20042;-58
2023/10/12 03:27:50;;;;;;;14.43;12.27;;;;;;;24.71;56.57;101520.25;5016604;28;20050;-58
2023/10/12 03:30:18;;;;;;;15.90;13.32;;;;;;;24.70;56.66;101515.84;5014521;28;20056;-59
2023/10/12 03:32:45;;;;;;;15.88;12.90;;;;;;;24.70;56.55;101516.69;5016260;28;20046;-59
2023/10/12 03:35:15;;;;;;;13.98;12.55;;;;;;;24.71;56.50;101515.69;5016062;28;20396;-58
2023/10/12 03:37:47;;;;;;;14.10;12.63;;;;;;;24.69;56.78;101515.00;5015813;28;20042;-58
2023/10/12 03:43:12;;;;;;;16.05;12.80;;;;;;;24.71;56.47;101517.53;5016206;28;20050;-58
2023/10/12 03:46:00;;;;;;;13.50;12.10;;;;;;;24.72;56.38;101513.88;5015897;28;20050;-58
2023/10/12 03:54:04;;;;;;;15.57;12.80;;;;;;;24.71;56.55;101517.53;5015878;28;20057;-58
2023/10/12 03:56:36;;;;;;;14.63;12.95;;;;;;;24.72;56.46;101513.88;5008386;28;20404;-58
2023/10/12 03:59:06;;;;;;;14.40;12.98;;;;;;;24.72;56.49;101511.16;5015474;28;20072;-58
2023/10/12 04:01:41;;;;;;;14.73;13.13;;;;;;;24.70;56.38;101508.56;5015318;28;20049;-58
2023/10/12 04:04:34;;;;;;;14.95;13.45;;;;;;;24.71;56.68;101512.13;5015841;28;20042;-58
2023/10/12 04:09:42;;;;;;;16.58;12.82;;;;;;;24.70;56.29;101510.44;5015652;28;20046;-58
2023/10/12 04:15:26;;;;;;;15.43;12.52;;;;;;;24.70;56.53;101513.16;5013247;28;20069;-58
2023/10/12 04:17:59;;;;;;;12.27;11.05;;;;;;;24.70;56.40;101510.44;5015269;28;20398;-58
2023/10/12 04:20:28;;;;;;;14.02;12.60;;;;;;;24.70;56.42;101515.84;5015526;28;20064;-58
2023/10/12 04:23:43;;;;;;;14.57;12.02;;;;;;;24.69;56.31;101514.16;5015324;28;20054;-58
2023/10/12 04:25:59;;;;;;;13.13;11.80;;;;;;;24.67;56.37;101515.16;5003991;28;20045;-58
2023/10/12 04:28:32;;;;;;;14.63;11.82;;;;;;;24.67;56.40;101517.00;5015607;28;20046;-59
2023/10/12 04:33:39;;;;;;;13.25;11.88;;;;;;;24.68;56.36;101518.72;5014920;28;20050;-59
2023/10/12 04:43:53;;;;;;;14.25;12.40;;;;;;;24.66;56.22;101518.84;5014901;28;20396;-59
2023/10/12 04:49:13;;;;;;;14.20;12.32;;;;;;;24.66;56.09;101512.59;5012398;28;20046;-58
2023/10/12 04:51:40;;;;;;;13.88;12.38;;;;;;;24.65;56.09;101510.88;5003756;28;20056;-59
2023/10/12 04:54:23;;;;;;;13.45;12.05;;;;;;;24.66;56.04;101515.28;5012773;28;20042;-59
2023/10/12 04:57:11;;;;;;;;;;;;;;;24.63;56.37;101511.06;5012663;28;20046;-59
2023/10/12 05:00:00;;;;;;;13.65;11.93;;;;;;;24.64;56.35;101512.75;5007529;28;19921;-59
2023/10/12 05:02:28;;;;;;;12.90;11.43;;;;;;;24.64;56.10;101518.16;5010898;28;20412;-59
2023/10/12 05:07:54;;;;;;;13.65;12.15;;;;;;;24.63;56.04;101527.31;5020830;28;20045;-60
2023/10/12 05:13:05;;;;;;;15.80;12.55;;;;;;;24.64;56.12;101530.84;5002402;28;20060;-60
2023/10/12 05:15:54;;;;;;;13.68;12.23;;;;;;;24.63;55.93;101532.72;5012806;28;20061;-58
2023/10/12 05:18:24;;;;;;;13.85;12.52;;;;;;;24.63;56.00;101532.72;5010432;28;20046;-59
2023/10/12 05:20:52;;;;;;;14.02;11.82;;;;;;;24.63;56.20;101534.53;5001664;28;20054;-58
2023/10/12 05:23:20;;;;;;;13.02;11.70;;;;;;;24.64;56.02;101536.28;5012282;28;20046;-59
2023/10/12 05:25:48;;;;;;;15.43;12.65;;;;;;;24.63;56.10;101535.41;5012219;28;20061;-58
2023/10/12 05:28:31;;;;;;;14.50;12.80;;;;;;;24.63;55.84;101531.84;5010826;28;20046;-59
2023/10/12 05:31:01;;;;;;;13.93;12.52;;;;;;;24.63;55.84;101530.00;5012424;28;20053;-58
2023/10/12 05:36:05;;;;;;;13.35;11.95;;;;;;;24.63;55.91;101539.94;5011135;28;20054;-59
2023/10/12 05:38:36;;;;;;;14.02;11.63;;;;;;;24.62;55.94;101536.41;5012042;28;20038;-59
2023/10/12 05:41:08;;;;;;;13.07;11.77;;;;;;;24.62;55.92;101547.22;5012466;28;20060;-58
2023/10/12 05:43:41;;;;;;;14.55;11.85;;;;;;;24.61;55.94;101544.69;5006952;28;20050;-58
2023/10/12 05:46:15;;;;;;;13.52;11.30;;;;;;;24.62;56.08;101547.22;5012885;28;20050;-65
2023/10/12 05:48:46;;;;;;;14.73;12.82;;;;;;;24.59;55.63;101546.66;5012349;28;20469;-65
2023/10/12 05:51:18;;;;;;;17.17;13.48;;;;;;;24.56;55.11;101555.13;5012627;28;20495;-57
2023/10/12 05:53:48;;;;;;;17.48;14.68;;;;;;;24.50;55.09;101564.66;5010475;28;20050;-58
2023/10/12 05:56:19;;;;;;;14.98;13.27;;;;;;;24.48;54.83;101557.72;5001522;28;20049;-58
2023/10/12 05:58:47;;;;;;;17.45;13.80;;;;;;;24.44;54.58;101562.56;5008956;28;20057;-63
2023/10/12 06:01:31;;;;;;;18.30;15.85;;;;;;;24.42;54.57;101572.66;5008361;28;20046;-58
2023/10/12 06:04:05;;;;;;;16.85;14.38;;;;;;;24.39;54.07;101568.44;5012990;28;20049;-58
2023/10/12 06:06:41;;;;;;;17.65;15.23;;;;;;;24.37;54.14;101575.78;5012106;28;20053;-58
2023/10/12 06:09:14;;;;;;;18.67;15.27;;;;;;;24.36;54.22;101573.25;5011333;28;20152;-58
2023/10/12 06:11:43;;;;;;;17.53;14.73;;;;;;;24.34;54.34;101580.63;5014408;28;20374;-59
2023/10/12 06:14:14;;;;;;;18.52;15.40;;;;;;;24.33;54.13;101584.34;5013142;28;20050;-58
2023/10/12 06:16:42;;;;;;;19.38;15.57;;;;;;;24.32;54.40;101583.50;5016078;28;20049;-59
2023/10/12 06:19:26;;;;;;;21.73;15.88;;;;;;;24.31;54.27;101578.25;5012963;28;20052;-58
2023/10/12 06:22:19;;;;;;;21.20;16.55;;;;;;;24.28;54.29;101587.50;5012551;28;20424;-58
2023/10/12 06:24:52;;;;;;;18.92;16.30;;;;;;;24.27;54.31;101582.25;5011753;28;20045;-60
2023/10/12 06:29:54;;;;;;;18.70;15.70;;;;;;;24.26;54.39;101594.06;5015310;28;20053;-60
2023/10/12 06:32:32;;;;;;;18.05;15.27;;;;;;;24.25;54.71;101595.06;5013011;28;20050;-59
2023/10/12 06:45:52;;;;;;;16.92;14.57;;;;;;;24.23;54.82;101610.59;5005681;28;20068;-59
2023/10/12 06:51:02;;;;;;;19.07;14.90;;;;;;;24.23;54.72;101613.31;5013926;28;20047;-59
2023/10/12 06:53:34;;;;;;;17.70;13.68;;;;;;;24.23;54.65;101622.28;5015182;28;20046;-60
2023/10/12 06:56:16;;;;;;;18.30;14.40;;;;;;;24.22;54.61;101611.56;5015804;28;20054;-60
2023/10/12 06:58:45;;;;;;;18.63;15.25;;;;;;;24.23;54.50;101616.00;5014618;28;20050;-61
2023/10/12 07:01:26;;;;;;;19.48;16.27;;;;;;;24.25;54.73;101625.66;5014376;28;20052;-63
2023/10/12 07:03:56;;;;;;;19.38;15.00;;;;;;;24.29;54.98;101631.66;5014819;28;20415;-63
2023/10/12 07:06:28;;;;;;;19.48;15.57;;;;;;;24.30;54.87;101628.78;5013448;28;20057;-62
2023/10/12 07:08:56;;;;;;;18.75;14.18;;;;;;;24.32;55.13;101637.63;5014564;28;20148;-64
2023/10/12 07:11:24;;;;;;;17.30;15.43;;;;;;;24.34;55.42;101638.31;5016211;28;20054;-59
2023/10/12 07:13:52;;;;;;;17.88;14.98;;;;;;;24.37;55.23;101637.19;5014409;28;20461;-60
2023/10/12 07:16:22;;;;;;;17.50;15.52;;;;;;;24.39;55.36;101640.66;5012870;28;20065;-74
2023/10/12 07:18:49;;;;;;;17.27;14.77;;;;;;;24.38;55.20;101639.75;5016008;28;20045;-66
2023/10/12 07:21:31;;;;;;;17.23;14.73;;;;;;;24.37;55.59;101634.47;5021881;28;20046;-65
2023/10/12 07:23:58;;;;;;;19.58;14.52;;;;;;;24.35;55.74;101641.91;5013949;28;20046;-65
2023/10/12 07:26:30;;;;;;;21.95;16.27;;;;;;;24.35;55.64;101639.19;5015477;28;20042;-59
2023/10/12 07:28:57;;;;;;;18.92;15.65;;;;;;;24.37;55.71;101634.47;5013026;28;20042;-59
2023/10/12 07:31:38;;;;;;;19.92;14.85;;;;;;;24.42;55.62;101645.75;5015569;28;20057;-60
2023/10/12 07:34:13;;;;;;;18.08;14.68;;;;;;;24.45;55.69;101644.63;5012469;28;20046;-59
2023/10/12 07:39:22;;;;;;;17.98;14.85;;;;;;;24.51;55.98;101649.44;5014101;28;20042;-56
2023/10/12 07:42:02;;;;;;;19.57;15.37;;;;;;;24.53;55.63;101645.59;5013641;28;20477;-56
2023/10/12 07:44:42;;;;;;;18.95;14.23;;;;;;;24.56;55.82;101650.72;5002962;28;20745;-56
2023/10/12 07:47:19;;;;;;;17.55;15.50;;;;;;;24.58;55.96;101647.84;5014725;28;20041;-50
2023/10/12 07:49:51;;;;;;;20.95;16.17;;;;;;;24.59;55.44;101644.13;5014228;28;20385;-60
2023/10/12 07:57:22;;;;;;;19.13;14.65;;;;;;;24.64;55.64;101648.13;5012964;28;20128;-63
2023/10/12 08:02:59;;;;;;;15.95;14.20;;;;;;;24.68;55.40;101651.41;5013682;28;20053;-58
2023/10/12 08:15:56;;;;;;;18.48;13.57;;;;;;;24.72;55.70;101650.09;5015156;28;20056;-63
2023/10/12 08:21:34;;;;;;;18.50;15.00;;;;;;;24.75;55.22;101654.34;5012769;28;20057;-59
2023/10/12 08:24:14;;;;;;;19.38;15.63;;;;;;;24.75;55.46;101654.34;5012713;28;20527;-60
2023/10/12 08:42:36;;;;;;;17.58;14.70;;;;;;;24.82;55.23;101647.34;5013010;28;20492;-60
2023/10/12 08:45:09;;;;;;;16.55;13.55;;;;;;;24.83;55.30;101651.75;5012469;28;20049;-60
2023/10/12 08:47:44;;;;;;;20.75;14.30;;;;;;;24.84;55.08;101645.34;5013019;28;20053;-60
2023/10/12 08:52:52;;;;;;;17.45;12.73;;;;;;;24.84;55.12;101645.34;5011227;28;20512;-63
2023/10/12 08:55:27;;;;;;;14.07;11.27;;;;;;;24.85;55.39;101647.06;5014013;28;20046;-62
2023/10/12 08:58:11;;;;;;;15.23;12.48;;;;;;;24.86;55.52;101644.19;5012668;28;20393;-62
2023/10/12 09:00:44;;;;;;;15.25;12.82;;;;;;;24.87;55.85;101634.19;5010863;28;20047;-64
2023/10/12 09:05:51;;;;;;;16.08;12.65;;;;;;;24.88;55.61;101639.50;5011921;28;19925;-61
2023/10/12 09:10:55;;;;;;;14.05;11.52;;;;;;;24.89;55.66;101629.50;5012401;28;20523;-55
2023/10/12 09:13:34;;;;;;;14.55;11.07;;;;;;;24.89;55.53;101635.78;5014045;28;20053;-57
2023/10/12 09:16:09;;;;;;;15.63;11.52;;;;;;;24.90;55.47;101633.91;5011139;28;20053;-56
2023/10/12 09:18:49;;;;;;;15.75;11.95;;;;;;;24.91;55.50;101633.78;5012619;28;20057;-53
2023/10/12 09:24:05;;;;;;;15.90;11.70;;;;;;;24.92;55.70;101640.03;5010258;28;20057;-62
2023/10/12 09:26:34;;;;;;;15.02;11.70;;;;;;;24.93;55.39;101641.75;5010983;28;20076;-61
2023/10/12 09:37:06;;;;;;;13.75;10.43;;;;;;;24.98;55.57;101639.44;5012170;28;20053;-63
2023/10/12 09:39:35;;;;;;;12.27;10.98;;;;;;;24.99;55.75;101640.28;5011422;28;20046;-58
2023/10/12 09:42:24;;;;;;;14.85;11.27;;;;;;;24.99;55.64;101634.88;5011018;28;20053;-57
2023/10/12 09:45:01;;;;;;;12.23;10.55;;;;;;;25.00;55.62;101639.31;5012139;28;20050;-57
2023/10/12 09:47:44;;;;;;;13.57;10.15;;;;;;;25.01;55.81;101641.00;5010966;28;20042;-53
2023/10/12 09:50:13;;;;;;;14.77;10.68;;;;;;;25.01;55.54;101639.13;5011760;28;20042;-57
2023/10/12 09:52:46;;;;;;;14.68;10.50;;;;;;;25.03;55.82;101638.97;5012554;28;20041;-54
2023/10/12 09:55:24;;;;;;;13.68;11.02;;;;;;;25.03;55.83;101642.53;5013188;28;20464;-57
2023/10/12 09:57:52;;;;;;;13.93;11.02;;;;;;;25.04;55.68;101641.56;5010638;28;20046;-54
2023/10/12 10:00:55;;;;;;;14.05;10.70;;;;;;;25.05;55.78;101645.97;5013044;28;20053;-63
2023/10/12 10:03:09;;;;;;;11.70;10.00;;;;;;;25.05;55.72;101648.69;5011200;28;20053;-63
2023/10/12 10:06:01;;;;;;;14.15;10.38;;;;;;;25.07;55.85;101649.38;5010164;28;20425;-63
2023/10/12 10:08:29;;;;;;;14.38;10.57;;;;;;;25.06;55.91;101649.53;5011289;28;20076;-61
2023/10/12 10:10:57;;;;;;;17.67;12.05;;;;;;;25.07;55.96;101648.50;5011193;28;20049;-55
2023/10/12 10:13:47;;;;;;;12.38;11.07;;;;;;;25.06;55.66;101641.41;5010178;28;20046;-54
2023/10/12 10:16:17;;;;;;;13.68;10.38;;;;;;;25.06;55.67;101644.09;5004048;28;20053;-56
2023/10/12 10:19:10;;;;;;;10.88;9.63;;;;;;;25.07;55.58;101643.94;5011806;28;20042;-54
2023/10/12 10:21:38;;;;;;;12.43;10.00;;;;;;;25.08;55.93;101639.41;5012987;28;20046;-54
2023/10/12 10:24:15;;;;;;;11.50;9.55;;;;;;;25.08;55.73;101636.69;5011479;28;20050;-57
2023/10/12 10:26:45;;;;;;;10.63;9.52;;;;;;;25.08;55.77;101632.13;5011662;28;20492;-51
2023/10/12 10:29:20;;;;;;;11.55;9.10;;;;;;;25.08;55.83;101632.13;5010571;28;20042;-61
2023/10/12 10:31:51;;;;;;;12.48;9.90;;;;;;;25.09;55.93;101636.56;5007991;28;20043;-59
2023/10/12 10:34:23;;;;;;;12.63;10.30;;;;;;;25.10;56.03;101627.44;5006576;28;20066;-65
2023/10/12 10:36:53;;;;;;;9.73;8.73;;;;;;;25.11;55.93;101637.25;5011154;28;20042;-61
2023/10/12 10:41:54;;;;;;;11.80;9.50;;;;;;;25.12;55.81;101621.88;5011480;28;20042;-58
2023/10/12 10:44:25;;;;;;;10.63;9.52;;;;;;;25.12;56.06;101625.44;5011052;28;20057;-52
2023/10/12 10:47:00;;;;;;;10.25;8.93;;;;;;;25.13;56.09;101623.56;5009998;28;20046;-56
2023/10/12 10:49:31;;;;;;;11.50;9.32;;;;;;;25.12;55.91;101617.31;5011520;28;20045;-51
2023/10/12 10:54:39;;;;;;;13.55;10.35;;;;;;;25.13;56.06;101610.88;5009296;28;20050;-54
2023/10/12 10:57:15;;;;;;;11.27;10.07;;;;;;;25.14;56.18;101611.72;5012765;28;20054;-57
2023/10/12 10:59:43;;;;;;;10.40;9.30;;;;;;;25.14;55.99;101606.31;5012472;28;20416;-63
2023/10/12 11:02:18;;;;;;;14.18;11.27;;;;;;;25.14;56.08;101598.19;5013208;28;20046;-62
2023/10/12 11:04:46;;;;;;;12.20;10.90;;;;;;;25.15;56.06;101597.16;5013284;28;20053;-64
2023/10/12 11:07:17;;;;;;;13.93;10.70;;;;;;;25.15;55.97;101586.31;5014592;28;20052;-60
2023/10/12 11:12:21;;;;;;;10.88;9.32;;;;;;;25.17;56.13;101586.19;5012700;28;20409;-56
2023/10/12 11:15:11;;;;;;;16.65;12.10;;;;;;;25.17;56.25;101583.50;5003093;28;20057;-59
2023/10/12 11:17:41;;;;;;;16.08;11.27;;;;;;;25.17;56.33;101588.91;5015043;28;20492;-59
2023/10/12 11:20:27;;;;;;;14.50;12.82;;;;;;;25.15;56.25;101584.47;5011899;28;20069;-61
2023/10/12 11:22:55;;;;;;;12.95;11.27;;;;;;;25.16;56.05;101571.81;5005617;28;20511;-64
2023/10/12 11:25:22;;;;;;;14.57;11.65;;;;;;;25.17;56.36;101564.53;5014373;28;20054;-62
2023/10/12 11:27:53;;;;;;;13.32;11.93;;;;;;;25.17;56.24;101557.25;5013113;28;20060;-60
2023/10/12 11:30:31;;;;;;;13.07;11.43;;;;;;;25.18;56.15;101561.66;5013848;28;20046;-64
2023/10/12 11:33:00;;;;;;;14.23;12.20;;;;;;;25.18;56.38;101552.66;5014606;28;20057;-63
2023/10/12 11:35:32;;;;;;;14.60;12.43;;;;;;;25.18;56.29;101552.66;5014280;28;20046;-62
2023/10/12 11:38:01;;;;;;;14.63;12.50;;;;;;;25.18;56.13;101552.66;5012907;28;20082;-63
2023/10/12 11:40:31;;;;;;;12.73;11.20;;;;;;;25.19;56.10;101543.53;5013894;28;20045;-62
2023/10/12 11:42:59;;;;;;;14.77;12.85;;;;;;;25.18;56.26;101541.81;5013832;28;20515;-62
2023/10/12 11:45:32;;;;;;;16.13;12.50;;;;;;;25.13;56.21;101542.28;5010856;28;20061;-63
2023/10/12 11:48:21;;;;;;;16.90;13.85;;;;;;;25.07;56.32;101538.28;5013193;28;20054;-61
2023/10/12 11:50:49;;;;;;;18.50;15.30;;;;;;;25.04;56.34;101538.63;5013459;28;20041;-58
2023/10/12 11:53:17;;;;;;;20.10;16.60;;;;;;;25.01;56.19;101530.78;5010546;28;20051;-59
2023/10/12 11:55:48;;;;;;;21.70;17.58;;;;;;;24.99;56.08;101521.94;5011964;28;20050;-59
2023/10/12 11:58:19;;;;;;;23.92;18.40;;;;;;;24.98;55.83;101519.41;5009280;28;20051;-59
2023/10/12 12:00:50;;;;;;;21.77;17.00;;;;;;;24.96;55.82;101516.00;5006169;28;20049;-63
2023/10/12 12:03:18;;;;;;;21.25;16.98;;;;;;;24.97;55.86;101506.88;5011658;28;20373;-63
2023/10/12 12:05:51;;;;;;;20.13;14.98;;;;;;;24.95;56.08;101509.72;5013380;28;20050;-63
2023/10/12 12:08:18;;;;;;;20.95;16.65;;;;;;;24.95;56.12;101501.56;5012270;28;20057;-63
2023/10/12 12:13:20;;;;;;;18.83;15.18;;;;;;;24.95;56.22;101493.44;5011051;28;20046;-59
2023/10/12 12:15:49;;;;;;;19.63;15.57;;;;;;;24.93;56.20;101484.63;5014963;28;20444;-59
2023/10/12 12:18:19;;;;;;;20.90;16.65;;;;;;;24.93;55.92;101484.63;5012873;28;20056;-59
2023/10/12 12:20:51;;;;;;;19.58;15.20;;;;;;;24.94;56.00;101480.06;5012617;28;20061;-64
2023/10/12 12:23:19;;;;;;;21.50;16.65;;;;;;;24.93;55.97;101484.63;5011653;28;20057;-60
2023/10/12 12:25:47;;;;;;;19.65;15.98;;;;;;;24.95;55.32;101487.19;5012948;28;20037;-60
2023/10/12 12:28:14;;;;;;;24.00;17.58;;;;;;;24.96;54.67;101473.50;5006678;28;20050;-62
2023/10/12 12:30:46;;;;;;;21.33;17.13;;;;;;;24.96;54.35;101475.38;5009533;28;20046;-63
2023/10/12 12:33:18;;;;;;;19.23;15.95;;;;;;;24.95;54.32;101477.19;5013369;28;20050;-60
2023/10/12 12:35:47;;;;;;;24.30;16.77;;;;;;;24.96;54.11;101472.66;5012434;28;20052;-61
2023/10/12 12:38:26;;;;;;;20.48;15.25;;;;;;;24.96;53.90;101472.66;5014051;28;20050;-58
2023/10/12 12:40:53;;;;;;;20.02;15.30;;;;;;;24.98;53.63;101473.34;5009756;28;20046;-49
2023/10/12 12:43:20;;;;;;;18.50;15.32;;;;;;;24.99;53.64;101464.19;5002502;28;20038;-50
2023/10/12 12:45:48;;;;;;;19.17;14.90;;;;;;;24.97;53.95;101469.78;5012492;28;20435;-52
2023/10/12 12:48:15;;;;;;;17.92;14.77;;;;;;;24.97;53.93;101468.94;5012659;28;20049;-50
2023/10/12 12:50:48;;;;;;;18.52;16.00;;;;;;;24.96;53.43;101473.50;5011033;28;20050;-50
2023/10/12 12:53:18;;;;;;;19.17;14.98;;;;;;;24.94;53.62;101469.25;4999042;28;20053;-49
2023/10/12 12:55:46;;;;;;;19.40;14.52;;;;;;;24.92;53.30;101455.88;5014249;28;20401;-50
2023/10/12 12:58:18;;;;;;;16.95;13.90;;;;;;;24.92;54.11;101455.88;5011779;28;20056;-49
2023/10/12 13:00:50;;;;;;;18.05;14.25;;;;;;;24.90;54.21;101449.72;5012215;28;20054;-48
2023/10/12 13:03:17;;;;;;;17.13;13.10;;;;;;;24.89;54.50;101454.31;5010381;28;20515;-52
2023/10/12 13:05:46;;;;;;;17.48;12.98;;;;;;;24.91;54.66;101456.84;5012265;28;20492;-49
2023/10/12 13:08:16;;;;;;;15.90;12.95;;;;;;;24.89;54.63;101445.31;5010578;28;20049;-53
2023/10/12 13:10:44;;;;;;;16.45;12.90;;;;;;;24.90;54.86;101444.31;5012440;28;20054;-49
2023/10/12 13:13:12;;;;;;;14.18;12.15;;;;;;;24.90;54.89;101447.03;5008932;28;20401;-52
2023/10/12 13:15:47;;;;;;;15.18;13.40;;;;;;;24.89;55.01;101445.31;5007201;28;20049;-50
2023/10/12 13:18:14;;;;;;;17.27;13.55;;;;;;;24.89;55.18;101445.31;5010067;28;20058;-51
2023/10/12 13:20:47;;;;;;;15.43;12.95;;;;;;;24.88;55.02;101444.47;5011901;28;20420;-53
2023/10/12 13:23:17;;;;;;;15.15;12.40;;;;;;;24.87;55.13;101442.78;5012377;28;20058;-50
2023/10/12 13:25:44;;;;;;;13.20;11.77;;;;;;;24.87;55.12;101440.06;5012059;28;20052;-50
2023/10/12 13:28:12;;;;;;;13.30;11.57;;;;;;;24.88;54.93;101432.81;5011697;28;20065;-50
2023/10/12 13:30:40;;;;;;;14.02;11.70;;;;;;;24.86;54.83;101432.09;5008794;28;20046;-49
2023/10/12 13:33:11;;;;;;;14.68;12.60;;;;;;;24.87;55.20;101431.06;5005231;28;20049;-50
2023/10/12 13:35:42;;;;;;;13.85;10.98;;;;;;;24.87;54.97;101426.53;5010707;28;20057;-50
2023/10/12 13:38:11;;;;;;;16.50;12.25;;;;;;;24.87;55.07;101431.06;5013150;28;20500;-51
2023/10/12 13:40:44;;;;;;;14.23;12.68;;;;;;;24.87;54.89;101436.50;5012037;28;20519;-51
2023/10/12 13:43:15;;;;;;;13.85;11.43;;;;;;;24.85;55.00;101423.13;5005506;28;20046;-50
2023/10/12 13:45:50;;;;;;;13.00;11.57;;;;;;;24.86;55.12;101429.38;5009704;28;20134;-50
2023/10/12 13:48:22;;;;;;;12.80;11.00;;;;;;;24.87;55.09;101426.53;5000565;28;20053;-50
2023/10/12 13:51:00;;;;;;;14.07;11.07;;;;;;;24.86;55.09;101407.72;5012097;28;20417;-59
2023/10/12 13:53:28;;;;;;;13.43;10.73;;;;;;;24.85;55.11;101420.41;5009611;28;20046;-59
2023/10/12 13:55:56;;;;;;;13.27;10.85;;;;;;;24.86;55.31;101413.97;5011440;28;20050;-59
2023/10/12 13:58:24;;;;;;;12.88;10.75;;;;;;;24.85;55.33;101408.72;5011456;28;20117;-59
2023/10/12 14:00:54;;;;;;;15.40;11.05;;;;;;;24.85;55.31;101411.44;5011531;28;20052;-59